createdAt,value
2017-05-04T00:00:35.876Z,10.87
2017-05-04T00:01:35.608Z,10.95
2017-05-04T00:02:35.280Z,10.95
2017-05-04T00:03:35.566Z,10.83
2017-05-04T00:04:35.537Z,10.91
2017-05-04T00:05:35.513Z,10.98
2017-05-04T00:06:35.490Z,11.01
2017-05-04T00:07:35.469Z,10.98
2017-05-04T00:08:35.443Z,10.95
2017-05-04T00:09:35.428Z,10.98
2017-05-04T00:10:35.401Z,11.02
2017-05-04T00:11:35.368Z,11.06
2017-05-04T00:12:35.397Z,10.95
2017-05-04T00:13:35.330Z,10.91
2017-05-04T00:14:35.307Z,11.01
2017-05-04T00:15:35.038Z,10.93
2017-05-04T00:16:35.260Z,10.95
2017-05-04T00:17:35.243Z,11.05
2017-05-04T00:18:35.222Z,10.98
2017-05-04T00:19:34.896Z,10.99
2017-05-04T00:20:35.169Z,10.94
2017-05-04T00:21:35.140Z,11.01
2017-05-04T00:22:35.122Z,11.01
2017-05-04T00:23:35.101Z,10.98
2017-05-04T00:24:35.074Z,10.99
2017-05-04T00:25:35.053Z,10.98
2017-05-04T00:26:35.031Z,10.99
2017-05-04T00:27:35.012Z,11.05
2017-05-04T00:28:34.990Z,10.99
2017-05-04T00:29:34.658Z,10.95
2017-05-04T00:30:34.947Z,11.02
2017-05-04T00:31:34.917Z,10.99
2017-05-04T00:32:34.902Z,11.02
2017-05-04T00:33:34.874Z,11.02
2017-05-04T00:34:34.841Z,10.99
2017-05-04T00:35:34.820Z,11.03
2017-05-04T00:36:34.799Z,11.01
2017-05-04T00:37:34.782Z,10.99
2017-05-04T00:38:34.756Z,11.05
2017-05-04T00:39:34.732Z,11.01
2017-05-04T00:40:34.709Z,11.06
2017-05-04T00:41:34.695Z,11.06
2017-05-04T00:42:34.670Z,11.01
2017-05-04T00:43:34.636Z,11.03
2017-05-04T00:44:34.620Z,10.99
2017-05-04T00:45:34.598Z,11.03
2017-05-04T00:46:34.617Z,10.95
2017-05-04T00:47:34.252Z,11.01
2017-05-04T00:48:34.557Z,10.95
2017-05-04T00:49:34.511Z,11.06
2017-05-04T00:50:34.482Z,10.93
2017-05-04T00:51:34.207Z,10.95
2017-05-04T00:52:34.432Z,10.93
2017-05-04T00:53:34.421Z,10.99
2017-05-04T00:54:34.387Z,10.99
2017-05-04T00:55:34.417Z,10.94
2017-05-04T00:56:34.348Z,10.98
2017-05-04T00:57:34.334Z,11.01
2017-05-04T00:58:34.300Z,10.86
2017-05-04T00:59:34.288Z,10.86
2017-05-04T01:00:34.260Z,10.9
2017-05-04T01:01:34.238Z,10.93
2017-05-04T01:02:33.906Z,11.01
2017-05-04T01:03:33.886Z,10.99
2017-05-04T01:04:34.165Z,10.8
2017-05-04T01:05:34.188Z,10.99
2017-05-04T01:06:34.128Z,10.91
2017-05-04T01:07:34.104Z,10.93
2017-05-04T01:08:34.085Z,10.9
2017-05-04T01:09:34.068Z,10.87
2017-05-04T01:10:34.030Z,10.87
2017-05-04T01:11:34.021Z,10.76
2017-05-04T01:12:33.978Z,10.83
2017-05-04T01:13:33.962Z,10.83
2017-05-04T01:14:33.935Z,10.78
2017-05-04T01:15:33.919Z,10.8
2017-05-04T01:16:33.886Z,10.83
2017-05-04T01:17:33.867Z,10.76
2017-05-04T01:18:33.837Z,10.76
2017-05-04T01:19:33.522Z,10.78
2017-05-04T01:20:33.878Z,10.76
2017-05-04T01:21:33.775Z,10.73
2017-05-04T01:22:33.748Z,10.68
2017-05-04T01:23:33.733Z,10.73
2017-05-04T01:24:33.401Z,10.7
2017-05-04T01:25:33.738Z,10.78
2017-05-04T01:26:33.656Z,10.68
2017-05-04T01:27:33.641Z,10.7
2017-05-04T01:28:33.864Z,10.65
2017-05-04T01:29:33.589Z,10.55
2017-05-04T01:30:33.563Z,10.63
2017-05-04T01:31:33.541Z,10.62
2017-05-04T01:32:33.520Z,10.57
2017-05-04T01:33:33.501Z,10.54
2017-05-04T01:34:33.522Z,10.62
2017-05-04T01:35:33.456Z,10.57
2017-05-04T01:36:33.430Z,10.6
2017-05-04T01:37:33.459Z,10.57
2017-05-04T01:38:33.384Z,10.6
2017-05-04T01:39:33.057Z,10.62
2017-05-04T01:40:33.340Z,10.69
2017-05-04T01:41:33.319Z,10.52
2017-05-04T01:42:33.287Z,10.62
2017-05-04T01:43:33.263Z,10.54
2017-05-04T01:44:33.246Z,10.66
2017-05-04T01:45:33.224Z,10.52
2017-05-04T01:46:33.145Z,10.51
2017-05-04T01:47:33.224Z,10.47
2017-05-04T01:48:33.158Z,10.55
2017-05-04T01:49:33.185Z,10.57
2017-05-04T01:50:33.103Z,10.52
2017-05-04T01:51:33.080Z,10.49
2017-05-04T01:52:33.061Z,10.43
2017-05-04T01:53:33.048Z,10.47
2017-05-04T01:54:32.714Z,10.44
2017-05-04T01:55:32.988Z,10.32
2017-05-04T01:56:32.969Z,10.35
2017-05-04T01:57:32.646Z,10.42
2017-05-04T01:58:32.922Z,10.47
2017-05-04T01:59:32.901Z,10.36
2017-05-04T02:00:32.869Z,10.32
2017-05-04T02:01:32.853Z,10.32
2017-05-04T02:02:33.131Z,10.31
2017-05-04T02:03:32.809Z,10.29
2017-05-04T02:04:32.779Z,10.31
2017-05-04T02:05:32.453Z,10.28
2017-05-04T02:06:32.740Z,10.34
2017-05-04T02:07:32.713Z,10.29
2017-05-04T02:08:32.698Z,10.26
2017-05-04T02:09:32.668Z,10.24
2017-05-04T02:10:32.644Z,10.2
2017-05-04T02:11:32.621Z,10.2
2017-05-04T02:12:32.603Z,10.16
2017-05-04T02:13:32.570Z,10.24
2017-05-04T02:14:32.555Z,10.24
2017-05-04T02:15:32.531Z,10.16
2017-05-04T02:16:32.211Z,10.2
2017-05-04T02:17:32.486Z,10.17
2017-05-04T02:18:32.456Z,10.11
2017-05-04T02:19:32.438Z,10.1
2017-05-04T02:20:32.139Z,10.07
2017-05-04T02:21:32.390Z,10.06
2017-05-04T02:22:32.364Z,10.06
2017-05-04T02:23:32.340Z,10.07
2017-05-04T02:24:32.030Z,10.04
2017-05-04T02:25:32.299Z,10.06
2017-05-04T02:26:32.275Z,10.1
2017-05-04T02:27:32.264Z,9.93
2017-05-04T02:28:32.234Z,10.02
2017-05-04T02:29:32.203Z,9.98
2017-05-04T02:30:32.180Z,9.91
2017-05-04T02:31:32.208Z,9.99
2017-05-04T02:32:32.133Z,10.01
2017-05-04T02:33:32.114Z,9.95
2017-05-04T02:34:32.087Z,9.92
2017-05-04T02:35:32.074Z,9.86
2017-05-04T02:36:32.043Z,9.92
2017-05-04T02:37:32.018Z,9.88
2017-05-04T02:38:32.003Z,9.89
2017-05-04T02:39:31.972Z,9.83
2017-05-04T02:40:31.944Z,9.91
2017-05-04T02:41:31.623Z,9.85
2017-05-04T02:42:31.912Z,9.89
2017-05-04T02:43:31.889Z,9.85
2017-05-04T02:44:31.861Z,9.89
2017-05-04T02:45:31.860Z,9.85
2017-05-04T02:46:31.813Z,9.8
2017-05-04T02:47:31.788Z,9.77
2017-05-04T02:48:31.764Z,9.74
2017-05-04T02:49:31.743Z,9.78
2017-05-04T02:50:31.714Z,9.8
2017-05-04T02:51:31.693Z,9.71
2017-05-04T02:52:31.668Z,9.71
2017-05-04T02:53:31.647Z,9.68
2017-05-04T02:54:31.625Z,9.67
2017-05-04T02:55:31.600Z,9.7
2017-05-04T02:56:31.625Z,9.74
2017-05-04T02:57:31.552Z,9.7
2017-05-04T02:58:31.546Z,9.65
2017-05-04T02:59:31.504Z,9.58
2017-05-04T03:00:31.498Z,9.5
2017-05-04T03:01:31.458Z,9.55
2017-05-04T03:02:31.437Z,9.55
2017-05-04T03:03:31.411Z,9.56
2017-05-04T03:04:31.391Z,9.53
2017-05-04T03:05:31.364Z,9.49
2017-05-04T03:06:31.367Z,9.49
2017-05-04T03:07:31.063Z,9.42
2017-05-04T03:08:30.991Z,9.44
2017-05-04T03:09:31.275Z,9.41
2017-05-04T03:10:31.257Z,9.42
2017-05-04T03:11:31.236Z,9.41
2017-05-04T03:12:31.199Z,9.27
2017-05-04T03:13:31.189Z,9.38
2017-05-04T03:14:31.156Z,9.35
2017-05-04T03:15:31.139Z,9.41
2017-05-04T03:16:31.107Z,9.34
2017-05-04T03:17:31.087Z,9.31
2017-05-04T03:18:31.055Z,9.26
2017-05-04T03:19:31.038Z,9.32
2017-05-04T03:20:31.024Z,9.35
2017-05-04T03:21:31.048Z,9.34
2017-05-04T03:22:30.965Z,9.35
2017-05-04T03:23:30.950Z,9.42
2017-05-04T03:24:30.920Z,9.41
2017-05-04T03:25:30.922Z,9.31
2017-05-04T03:26:30.869Z,9.38
2017-05-04T03:27:30.545Z,9.24
2017-05-04T03:28:30.858Z,9.24
2017-05-04T03:29:30.803Z,9.19
2017-05-04T03:30:30.784Z,9.08
2017-05-04T03:31:30.766Z,9.08
2017-05-04T03:32:30.729Z,9.12
2017-05-04T03:33:30.711Z,9.13
2017-05-04T03:34:30.685Z,9.08
2017-05-04T03:35:30.668Z,9.04
2017-05-04T03:36:30.641Z,9.03
2017-05-04T03:37:30.616Z,8.98
2017-05-04T03:38:30.292Z,9.03
2017-05-04T03:39:30.576Z,9.16
2017-05-04T03:40:30.542Z,9.1
2017-05-04T03:41:30.517Z,9.1
2017-05-04T03:42:30.503Z,9.06
2017-05-04T03:43:30.478Z,9.04
2017-05-04T03:44:30.451Z,9.12
2017-05-04T03:45:30.447Z,9.04
2017-05-04T03:46:30.402Z,9.13
2017-05-04T03:47:30.379Z,9.19
2017-05-04T03:48:30.362Z,9.12
2017-05-04T03:49:30.330Z,9.08
2017-05-04T03:50:30.307Z,9.12
2017-05-04T03:51:30.283Z,9.1
2017-05-04T03:52:30.263Z,9.06
2017-05-04T03:53:30.244Z,9.19
2017-05-04T03:54:30.209Z,9.12
2017-05-04T03:55:29.891Z,9.13
2017-05-04T03:56:30.166Z,9.16
2017-05-04T03:57:30.142Z,9.15
2017-05-04T03:58:30.119Z,9.1
2017-05-04T03:59:30.099Z,9.12
2017-05-04T04:00:30.077Z,9.1
2017-05-04T04:01:30.058Z,9.04
2017-05-04T04:02:30.021Z,9.04
2017-05-04T04:03:30.009Z,9.01
2017-05-04T04:04:29.981Z,9
2017-05-04T04:05:29.954Z,9.01
2017-05-04T04:06:29.934Z,9.06
2017-05-04T04:07:29.959Z,9.01
2017-05-04T04:08:29.890Z,8.98
2017-05-04T04:09:29.862Z,8.98
2017-05-04T04:10:29.896Z,9.01
2017-05-04T04:11:29.812Z,9.1
2017-05-04T04:12:29.792Z,9.1
2017-05-04T04:13:29.774Z,8.98
2017-05-04T04:14:29.746Z,9.08
2017-05-04T04:15:29.723Z,9.06
2017-05-04T04:16:29.694Z,9.03
2017-05-04T04:17:29.674Z,9.08
2017-05-04T04:18:29.656Z,8.91
2017-05-04T04:19:29.634Z,9.04
2017-05-04T04:20:29.607Z,9.08
2017-05-04T04:21:29.617Z,9.1
2017-05-04T04:22:29.562Z,9.15
2017-05-04T04:23:29.846Z,9.01
2017-05-04T04:24:29.514Z,8.98
2017-05-04T04:25:29.483Z,9.03
2017-05-04T04:26:29.462Z,9.08
2017-05-04T04:27:29.441Z,9
2017-05-04T04:28:29.421Z,9.06
2017-05-04T04:29:29.396Z,8.94
2017-05-04T04:30:29.372Z,8.96
2017-05-04T04:31:29.348Z,8.93
2017-05-04T04:32:43.930Z,8.97
2017-05-04T04:33:29.314Z,8.93
2017-05-04T04:34:29.271Z,8.98
2017-05-04T04:35:29.254Z,8.97
2017-05-04T04:36:29.230Z,8.97
2017-05-04T04:37:29.205Z,9
2017-05-04T04:38:29.184Z,9
2017-05-04T04:39:29.164Z,9
2017-05-04T04:40:29.134Z,9
2017-05-04T04:41:28.807Z,9
2017-05-04T04:42:29.098Z,9.03
2017-05-04T04:43:29.065Z,9.03
2017-05-04T04:44:29.040Z,9
2017-05-04T04:45:29.027Z,8.98
2017-05-04T04:46:29.025Z,9
2017-05-04T04:47:28.970Z,9.01
2017-05-04T04:48:28.946Z,8.98
2017-05-04T04:49:28.919Z,8.98
2017-05-04T04:50:28.906Z,8.94
2017-05-04T04:51:28.877Z,8.89
2017-05-04T04:52:28.863Z,8.91
2017-05-04T04:53:28.530Z,8.96
2017-05-04T04:54:28.800Z,8.91
2017-05-04T04:55:28.781Z,8.91
2017-05-04T04:56:28.761Z,8.91
2017-05-04T04:57:28.738Z,8.98
2017-05-04T04:58:28.719Z,8.97
2017-05-04T04:59:28.697Z,8.91
2017-05-04T05:00:28.666Z,8.97
2017-05-04T05:01:28.687Z,8.98
2017-05-04T05:02:28.620Z,8.98
2017-05-04T05:03:28.598Z,8.98
2017-05-04T05:04:28.570Z,8.97
2017-05-04T05:05:28.552Z,8.98
2017-05-04T05:06:28.528Z,8.97
2017-05-04T05:07:28.500Z,9.06
2017-05-04T05:08:28.478Z,9.04
2017-05-04T05:09:28.453Z,9.04
2017-05-04T05:10:28.129Z,9.1
2017-05-04T05:11:28.418Z,9.08
2017-05-04T05:12:28.384Z,9.04
2017-05-04T05:13:28.055Z,9.04
2017-05-04T05:14:28.347Z,9.01
2017-05-04T05:15:28.310Z,9.15
2017-05-04T05:16:28.342Z,9.06
2017-05-04T05:17:28.267Z,9.22
2017-05-04T05:18:28.291Z,9.22
2017-05-04T05:19:28.248Z,9.15
2017-05-04T05:20:28.204Z,9.22
2017-05-04T05:21:28.174Z,9.2
2017-05-04T05:22:28.155Z,9.3
2017-05-04T05:23:28.128Z,9.26
2017-05-04T05:24:27.815Z,9.22
2017-05-04T05:25:27.828Z,9.26
2017-05-04T05:26:28.055Z,9.24
2017-05-04T05:27:28.034Z,9.24
2017-05-04T05:28:28.011Z,9.35
2017-05-04T05:29:27.996Z,9.31
2017-05-04T05:30:27.962Z,9.32
2017-05-04T05:31:27.981Z,9.45
2017-05-04T05:32:27.924Z,9.37
2017-05-04T05:33:27.909Z,9.44
2017-05-04T05:34:27.879Z,9.45
2017-05-04T05:35:27.854Z,9.49
2017-05-04T05:36:27.829Z,9.44
2017-05-04T05:37:27.505Z,9.41
2017-05-04T05:38:27.790Z,9.5
2017-05-04T05:39:27.799Z,9.5
2017-05-04T05:40:27.798Z,9.55
2017-05-04T05:41:27.412Z,9.59
2017-05-04T05:42:27.685Z,9.63
2017-05-04T05:43:27.668Z,9.65
2017-05-04T05:44:27.639Z,9.7
2017-05-04T05:45:27.320Z,9.78
2017-05-04T05:46:27.350Z,9.83
2017-05-04T05:47:27.583Z,9.86
2017-05-04T05:48:27.561Z,9.88
2017-05-04T05:49:27.531Z,9.91
2017-05-04T05:50:27.255Z,9.91
2017-05-04T05:51:27.486Z,10.01
2017-05-04T05:52:27.470Z,10.02
2017-05-04T05:53:27.441Z,10.16
2017-05-04T05:54:27.424Z,10.09
2017-05-04T05:55:27.385Z,10.18
2017-05-04T05:56:27.368Z,10.35
2017-05-04T05:57:27.348Z,10.49
2017-05-04T05:58:27.328Z,10.57
2017-05-04T05:59:26.998Z,10.57
2017-05-04T06:00:27.329Z,10.8
2017-05-04T06:01:27.258Z,10.88
2017-05-04T06:02:27.249Z,10.94
2017-05-04T06:03:26.908Z,10.84
2017-05-04T06:04:27.194Z,10.87
2017-05-04T06:05:27.169Z,10.58
2017-05-04T06:06:27.148Z,10.68
2017-05-04T06:07:27.119Z,10.49
2017-05-04T06:08:27.140Z,10.49
2017-05-04T06:09:27.081Z,10.44
2017-05-04T06:10:26.755Z,10.49
2017-05-04T06:11:27.031Z,10.32
2017-05-04T06:12:26.748Z,10.22
2017-05-04T06:13:27.049Z,10.1
2017-05-04T06:14:26.968Z,10.16
2017-05-04T06:15:26.941Z,10.17
2017-05-04T06:16:26.927Z,10.2
2017-05-04T06:17:26.907Z,10.09
2017-05-04T06:18:26.874Z,10.04
2017-05-04T06:19:26.866Z,10.1
2017-05-04T06:20:26.833Z,10.18
2017-05-04T06:21:26.860Z,10.17
2017-05-04T06:22:26.784Z,10.18
2017-05-04T06:23:26.869Z,10.18
2017-05-04T06:24:26.988Z,10.18
2017-05-04T06:25:26.718Z,10.13
2017-05-04T06:26:26.709Z,10.11
2017-05-04T06:27:26.686Z,10.02
2017-05-04T06:28:26.657Z,10.11
2017-05-04T06:29:26.682Z,10.01
2017-05-04T06:30:26.662Z,10.1
2017-05-04T06:31:26.578Z,10.09
2017-05-04T06:32:26.576Z,10.04
2017-05-04T06:33:26.232Z,9.99
2017-05-04T06:34:26.514Z,10.09
2017-05-04T06:35:26.492Z,10.09
2017-05-04T06:36:26.481Z,10.1
2017-05-04T06:37:26.454Z,10.1
2017-05-04T06:38:26.419Z,10.11
2017-05-04T06:39:26.408Z,10.09
2017-05-04T06:40:26.380Z,10.02
2017-05-04T06:41:26.409Z,10.04
2017-05-04T06:42:26.354Z,9.99
2017-05-04T06:43:26.313Z,9.98
2017-05-04T06:44:26.285Z,10.09
2017-05-04T06:45:25.972Z,10.13
2017-05-04T06:46:26.241Z,10.22
2017-05-04T06:47:26.220Z,10.17
2017-05-04T06:48:26.201Z,10.22
2017-05-04T06:49:26.207Z,10.17
2017-05-04T06:50:26.158Z,10.26
2017-05-04T06:51:26.134Z,10.26
2017-05-04T06:52:26.106Z,10.22
2017-05-04T06:53:26.085Z,10.28
2017-05-04T06:54:26.063Z,10.28
2017-05-04T06:55:26.088Z,10.24
2017-05-04T06:56:26.047Z,10.31
2017-05-04T06:57:26.006Z,10.28
2017-05-04T06:58:25.673Z,10.28
2017-05-04T06:59:25.654Z,10.2
2017-05-04T07:00:25.629Z,10.34
2017-05-04T07:01:25.915Z,10.29
2017-05-04T07:02:25.890Z,10.24
2017-05-04T07:03:25.557Z,10.22
2017-05-04T07:04:25.841Z,10.24
2017-05-04T07:05:25.818Z,10.17
2017-05-04T07:06:25.797Z,10.11
2017-05-04T07:07:25.773Z,10.29
2017-05-04T07:08:25.750Z,10.25
2017-05-04T07:09:25.730Z,10.29
2017-05-04T07:10:25.701Z,10.43
2017-05-04T07:11:25.705Z,10.44
2017-05-04T07:12:25.662Z,10.46
2017-05-04T07:13:25.644Z,10.57
2017-05-04T07:14:25.620Z,10.68
2017-05-04T07:15:25.591Z,10.57
2017-05-04T07:16:25.572Z,10.66
2017-05-04T07:17:25.543Z,10.62
2017-05-04T07:18:25.528Z,10.69
2017-05-04T07:19:25.499Z,10.84
2017-05-04T07:20:25.481Z,10.87
2017-05-04T07:21:25.459Z,11.01
2017-05-04T07:22:25.437Z,11.08
2017-05-04T07:23:25.411Z,11.13
2017-05-04T07:24:25.397Z,11.27
2017-05-04T07:25:25.373Z,11.13
2017-05-04T07:26:25.351Z,11.27
2017-05-04T07:27:25.335Z,11.13
2017-05-04T07:28:25.313Z,11.2
2017-05-04T07:29:25.278Z,11.27
2017-05-04T07:30:25.261Z,11.38
2017-05-04T07:31:25.237Z,11.26
2017-05-04T07:32:25.212Z,11.09
2017-05-04T07:33:24.898Z,11.02
2017-05-04T07:34:25.171Z,10.99
2017-05-04T07:35:25.151Z,10.98
2017-05-04T07:36:25.129Z,11.01
2017-05-04T07:37:25.109Z,11.11
2017-05-04T07:38:25.098Z,11.05
2017-05-04T07:39:25.060Z,11.05
2017-05-04T07:40:25.043Z,11.13
2017-05-04T07:41:25.025Z,11.19
2017-05-04T07:42:24.996Z,11.41
2017-05-04T07:43:24.980Z,11.64
2017-05-04T07:44:24.955Z,11.62
2017-05-04T07:45:24.934Z,11.84
2017-05-04T07:46:24.911Z,11.97
2017-05-04T07:47:24.889Z,12.07
2017-05-04T07:48:24.876Z,12.12
2017-05-04T07:49:24.845Z,12.08
2017-05-04T07:50:24.842Z,12.21
2017-05-04T07:51:24.802Z,12.21
2017-05-04T07:52:24.791Z,12.15
2017-05-04T07:53:25.066Z,12.23
2017-05-04T07:54:24.742Z,12.26
2017-05-04T07:55:24.734Z,12.54
2017-05-04T07:56:24.696Z,12.66
2017-05-04T07:57:24.677Z,12.95
2017-05-04T07:58:24.660Z,13.04
2017-05-04T07:59:24.644Z,13.03
2017-05-04T08:00:24.621Z,13.13
2017-05-04T08:01:24.604Z,13.38
2017-05-04T08:02:24.582Z,13.63
2017-05-04T08:03:24.254Z,13.69
2017-05-04T08:04:24.538Z,13.72
2017-05-04T08:05:24.519Z,13.83
2017-05-04T08:06:24.500Z,14.04
2017-05-04T08:07:24.474Z,14.08
2017-05-04T08:08:24.462Z,14.41
2017-05-04T08:09:24.434Z,14.75
2017-05-04T08:10:24.421Z,15
2017-05-04T08:11:24.400Z,15.04
2017-05-04T08:12:24.383Z,14.83
2017-05-04T08:13:24.364Z,14.82
2017-05-04T08:14:24.348Z,14.78
2017-05-04T08:15:24.024Z,14.75
2017-05-04T08:16:24.320Z,14.93
2017-05-04T08:17:24.287Z,15.16
2017-05-04T08:18:24.264Z,15.16
2017-05-04T08:19:24.248Z,15.05
2017-05-04T08:20:24.540Z,15
2017-05-04T08:21:24.211Z,15.09
2017-05-04T08:22:24.197Z,15.35
2017-05-04T08:23:24.199Z,15.71
2017-05-04T08:24:24.160Z,16.01
2017-05-04T08:25:24.142Z,16.17
2017-05-04T08:26:24.124Z,16.34
2017-05-04T08:27:23.806Z,16.66
2017-05-04T08:28:23.788Z,16.73
2017-05-04T08:29:24.084Z,16.78
2017-05-04T08:30:24.054Z,16.8
2017-05-04T08:31:24.045Z,16.88
2017-05-04T08:32:24.020Z,16.7
2017-05-04T08:33:24.023Z,16.23
2017-05-04T08:34:23.994Z,16.03
2017-05-04T08:35:23.979Z,15.77
2017-05-04T08:36:23.973Z,15.71
2017-05-04T08:37:23.940Z,15.52
2017-05-04T08:38:23.929Z,15.3
2017-05-04T08:39:23.915Z,15.04
2017-05-04T08:40:24.139Z,14.85
2017-05-04T08:41:23.872Z,14.85
2017-05-04T08:42:23.853Z,15.09
2017-05-04T08:43:23.844Z,14.98
2017-05-04T08:44:23.839Z,15.05
2017-05-04T08:45:23.495Z,14.94
2017-05-04T08:46:23.781Z,14.61
2017-05-04T08:47:23.764Z,14.29
2017-05-04T08:48:23.756Z,14.05
2017-05-04T08:49:23.730Z,13.84
2017-05-04T08:50:23.404Z,13.91
2017-05-04T08:51:23.389Z,13.86
2017-05-04T08:52:23.668Z,13.66
2017-05-04T08:53:23.675Z,13.53
2017-05-04T08:54:23.632Z,13.5
2017-05-04T08:55:23.612Z,13.44
2017-05-04T08:56:23.596Z,13.46
2017-05-04T08:57:23.568Z,13.39
2017-05-04T08:58:23.551Z,13.53
2017-05-04T08:59:23.537Z,13.59
2017-05-04T09:00:23.530Z,13.63
2017-05-04T09:01:23.499Z,13.68
2017-05-04T09:02:23.478Z,13.76
2017-05-04T09:03:22.861Z,13.81
2017-05-04T09:04:23.436Z,13.87
2017-05-04T09:05:23.418Z,13.9
2017-05-04T09:06:23.102Z,13.96
2017-05-04T09:07:23.378Z,13.94
2017-05-04T09:08:23.060Z,13.88
2017-05-04T09:09:23.341Z,13.76
2017-05-04T09:10:23.320Z,13.71
2017-05-04T09:11:23.303Z,13.79
2017-05-04T09:12:23.280Z,14.06
2017-05-04T09:13:22.968Z,14.19
2017-05-04T09:14:23.239Z,14.29
2017-05-04T09:15:23.214Z,14.39
2017-05-04T09:16:22.905Z,14.61
2017-05-04T09:17:23.184Z,15.01
2017-05-04T09:18:23.180Z,15.25
2017-05-04T09:19:23.149Z,15.48
2017-05-04T09:20:23.125Z,15.78
2017-05-04T09:21:23.121Z,15.89
2017-05-04T09:22:23.410Z,16.1
2017-05-04T09:23:23.080Z,16.1
2017-05-04T09:24:22.749Z,15.95
2017-05-04T09:25:23.042Z,15.95
2017-05-04T09:26:23.023Z,15.98
2017-05-04T09:27:23.002Z,15.84
2017-05-04T09:28:22.983Z,15.49
2017-05-04T09:29:22.974Z,15.13
2017-05-04T09:30:22.952Z,14.94
2017-05-04T09:31:22.931Z,14.79
2017-05-04T09:32:22.911Z,14.59
2017-05-04T09:33:22.900Z,14.27
2017-05-04T09:34:22.575Z,14.09
2017-05-04T09:35:22.856Z,13.96
2017-05-04T09:36:22.833Z,13.88
2017-05-04T09:37:22.823Z,13.72
2017-05-04T09:38:22.793Z,13.75
2017-05-04T09:39:22.811Z,13.65
2017-05-04T09:40:22.762Z,13.63
2017-05-04T09:41:22.442Z,13.55
2017-05-04T09:42:22.718Z,13.65
2017-05-04T09:43:22.712Z,13.59
2017-05-04T09:44:22.683Z,13.62
2017-05-04T09:45:22.360Z,13.35
2017-05-04T09:46:22.668Z,13.35
2017-05-04T09:47:22.631Z,13.44
2017-05-04T09:48:22.295Z,13.44
2017-05-04T09:49:22.279Z,13.47
2017-05-04T09:50:22.572Z,13.39
2017-05-04T09:51:22.535Z,13.5
2017-05-04T09:52:22.517Z,13.5
2017-05-04T09:53:22.500Z,13.54
2017-05-04T09:54:22.479Z,13.65
2017-05-04T09:55:22.460Z,13.69
2017-05-04T09:56:22.439Z,13.76
2017-05-04T09:57:22.425Z,13.69
2017-05-04T09:58:22.410Z,13.79
2017-05-04T09:59:22.385Z,13.76
2017-05-04T10:00:22.353Z,13.86
2017-05-04T10:01:22.351Z,13.88
2017-05-04T10:02:22.326Z,14.04
2017-05-04T10:03:22.304Z,14.17
2017-05-04T10:04:22.285Z,14.19
2017-05-04T10:05:22.282Z,14.29
2017-05-04T10:06:22.248Z,14.24
2017-05-04T10:07:22.221Z,14.11
2017-05-04T10:08:22.210Z,14.31
2017-05-04T10:09:22.186Z,14.45
2017-05-04T10:10:22.161Z,14.38
2017-05-04T10:11:22.135Z,14.29
2017-05-04T10:12:22.122Z,14.39
2017-05-04T10:13:22.112Z,14.41
2017-05-04T10:14:22.083Z,14.31
2017-05-04T10:15:22.065Z,14.26
2017-05-04T10:16:22.044Z,14.26
2017-05-04T10:17:22.021Z,14.26
2017-05-04T10:18:22.002Z,14.13
2017-05-04T10:19:21.690Z,14.05
2017-05-04T10:20:21.974Z,13.96
2017-05-04T10:21:21.954Z,13.98
2017-05-04T10:22:21.934Z,13.87
2017-05-04T10:23:22.109Z,13.87
2017-05-04T10:24:21.891Z,13.98
2017-05-04T10:25:21.861Z,14.01
2017-05-04T10:26:21.861Z,13.94
2017-05-04T10:27:22.044Z,13.96
2017-05-04T10:28:21.820Z,14.01
2017-05-04T10:29:21.791Z,13.99
2017-05-04T10:30:21.769Z,14.02
2017-05-04T10:31:21.755Z,14.09
2017-05-04T10:32:21.730Z,14.08
2017-05-04T10:33:21.716Z,14.09
2017-05-04T10:34:21.395Z,14.11
2017-05-04T10:35:21.667Z,13.96
2017-05-04T10:36:21.652Z,13.84
2017-05-04T10:37:21.629Z,13.81
2017-05-04T10:38:21.611Z,13.84
2017-05-04T10:39:21.594Z,13.9
2017-05-04T10:40:21.270Z,13.87
2017-05-04T10:41:21.551Z,13.81
2017-05-04T10:42:21.531Z,13.8
2017-05-04T10:43:21.512Z,13.71
2017-05-04T10:44:21.191Z,13.63
2017-05-04T10:45:21.473Z,13.63
2017-05-04T10:46:21.449Z,13.63
2017-05-04T10:47:21.427Z,13.55
2017-05-04T10:48:21.409Z,13.47
2017-05-04T10:49:21.394Z,13.51
2017-05-04T10:50:21.364Z,13.55
2017-05-04T10:51:21.348Z,13.46
2017-05-04T10:52:21.331Z,13.41
2017-05-04T10:53:21.305Z,13.43
2017-05-04T10:54:21.297Z,13.38
2017-05-04T10:55:21.258Z,13.38
2017-05-04T10:56:21.241Z,13.38
2017-05-04T10:57:21.223Z,13.44
2017-05-04T10:58:21.199Z,13.46
2017-05-04T10:59:21.176Z,13.5
2017-05-04T11:00:21.166Z,13.53
2017-05-04T11:01:20.836Z,13.46
2017-05-04T11:02:21.130Z,13.36
2017-05-04T11:03:20.800Z,13.28
2017-05-04T11:04:21.070Z,13.22
2017-05-04T11:05:21.059Z,13.13
2017-05-04T11:06:21.043Z,13.21
2017-05-04T11:07:21.010Z,13.24
2017-05-04T11:08:20.988Z,13.19
2017-05-04T11:09:20.670Z,13.27
2017-05-04T11:10:20.656Z,13.29
2017-05-04T11:11:20.934Z,13.35
2017-05-04T11:12:20.915Z,13.44
2017-05-04T11:13:20.594Z,13.47
2017-05-04T11:14:20.569Z,13.39
2017-05-04T11:15:20.853Z,13.5
2017-05-04T11:16:20.832Z,13.54
2017-05-04T11:17:20.803Z,13.61
2017-05-04T11:18:20.782Z,13.66
2017-05-04T11:19:20.765Z,13.62
2017-05-04T11:20:20.796Z,13.51
2017-05-04T11:21:20.721Z,13.51
2017-05-04T11:22:20.710Z,13.5
2017-05-04T11:23:20.686Z,13.41
2017-05-04T11:24:20.662Z,13.29
2017-05-04T11:25:20.640Z,13.16
2017-05-04T11:26:20.611Z,13.14
2017-05-04T11:27:20.596Z,13.12
2017-05-04T11:28:20.876Z,13.09
2017-05-04T11:29:20.554Z,13.06
2017-05-04T11:30:20.834Z,13.04
2017-05-04T11:31:20.513Z,13.07
2017-05-04T11:32:20.493Z,13.06
2017-05-04T11:33:20.472Z,13.01
2017-05-04T11:34:20.443Z,13.01
2017-05-04T11:35:20.433Z,12.96
2017-05-04T11:36:20.412Z,12.94
2017-05-04T11:37:20.380Z,13.06
2017-05-04T11:38:20.367Z,13.12
2017-05-04T11:39:20.036Z,13.22
2017-05-04T11:40:20.324Z,13.17
2017-05-04T11:41:20.298Z,13.13
2017-05-04T11:42:20.277Z,13.13
2017-05-04T11:43:20.255Z,13.19
2017-05-04T11:44:19.933Z,13.16
2017-05-04T11:45:20.213Z,13.17
2017-05-04T11:46:20.195Z,13.19
2017-05-04T11:47:20.171Z,13.16
2017-05-04T11:48:19.845Z,13.13
2017-05-04T11:49:20.135Z,13.1
2017-05-04T11:50:19.811Z,12.94
2017-05-04T11:51:20.080Z,13.01
2017-05-04T11:52:19.759Z,12.94
2017-05-04T11:53:20.050Z,12.98
2017-05-04T11:54:20.022Z,12.88
2017-05-04T11:55:19.997Z,12.81
2017-05-04T11:56:19.984Z,12.76
2017-05-04T11:57:19.654Z,12.79
2017-05-04T11:58:19.943Z,12.76
2017-05-04T11:59:19.917Z,12.76
2017-05-04T12:00:19.607Z,12.59
2017-05-04T12:01:19.878Z,12.73
2017-05-04T12:02:19.857Z,12.77
2017-05-04T12:03:19.542Z,12.76
2017-05-04T12:04:19.834Z,12.81
2017-05-04T12:05:19.797Z,12.79
2017-05-04T12:06:20.001Z,12.62
2017-05-04T12:07:19.745Z,12.62
2017-05-04T12:08:19.718Z,12.55
2017-05-04T12:09:19.695Z,12.66
2017-05-04T12:10:19.698Z,12.66
2017-05-04T12:11:19.672Z,12.61
2017-05-04T12:12:19.640Z,12.58
2017-05-04T12:13:19.624Z,12.55
2017-05-04T12:14:19.596Z,12.56
2017-05-04T12:15:19.612Z,12.4
2017-05-04T12:16:19.548Z,12.33
2017-05-04T12:17:19.532Z,12.31
2017-05-04T12:18:19.517Z,12.36
2017-05-04T12:19:19.491Z,12.3
2017-05-04T12:20:19.473Z,12.31
2017-05-04T12:21:19.444Z,12.33
2017-05-04T12:22:19.415Z,12.23
2017-05-04T12:23:19.102Z,12.3
2017-05-04T12:24:19.382Z,12.19
2017-05-04T12:25:19.385Z,12.12
2017-05-04T12:26:19.063Z,12.11
2017-05-04T12:27:19.307Z,12.01
2017-05-04T12:28:18.999Z,12.12
2017-05-04T12:29:19.295Z,12.19
2017-05-04T12:30:19.251Z,12.3
2017-05-04T12:31:19.232Z,12.33
2017-05-04T12:32:18.909Z,12.31
2017-05-04T12:33:18.883Z,12.36
2017-05-04T12:34:18.861Z,12.33
2017-05-04T12:35:19.147Z,12.23
2017-05-04T12:36:19.138Z,12.22
2017-05-04T12:37:19.084Z,12.15
2017-05-04T12:38:19.090Z,12.01
2017-05-04T12:39:18.757Z,12.05
2017-05-04T12:40:19.043Z,11.98
2017-05-04T12:41:18.708Z,11.87
2017-05-04T12:42:19.033Z,11.87
2017-05-04T12:43:18.963Z,11.88
2017-05-04T12:44:18.947Z,12.01
2017-05-04T12:45:18.926Z,12.11
2017-05-04T12:46:18.610Z,12.07
2017-05-04T12:47:18.899Z,12.15
2017-05-04T12:48:18.862Z,12.12
2017-05-04T12:49:18.839Z,12.12
2017-05-04T12:50:18.819Z,12.08
2017-05-04T12:51:18.494Z,12.04
2017-05-04T12:52:18.808Z,12.08
2017-05-04T12:53:18.759Z,12.04
2017-05-04T12:54:18.424Z,12.01
2017-05-04T12:55:18.399Z,11.97
2017-05-04T12:56:18.391Z,11.96
2017-05-04T12:57:18.691Z,11.97
2017-05-04T12:58:18.392Z,11.98
2017-05-04T12:59:18.638Z,11.97
2017-05-04T13:00:18.288Z,11.96
2017-05-04T13:01:18.573Z,11.88
2017-05-04T13:02:18.552Z,11.93